createdAt,value
2022-10-23T00:04:52.143Z,11.21
2022-10-23T00:09:54.014Z,11.20
2022-10-23T00:14:55.544Z,11.11
2022-10-23T00:19:57.149Z,10.98
2022-10-23T00:24:58.682Z,10.58
2022-10-23T00:30:00.668Z,10.46
2022-10-23T00:35:02.349Z,10.50
2022-10-23T00:40:05.131Z,10.47
2022-10-23T00:45:33.589Z,10.47
2022-10-23T00:50:35.076Z,10.68
2022-10-23T00:55:38.445Z,10.76
2022-10-23T01:00:46.097Z,10.63
2022-10-23T01:06:02.413Z,10.62
2022-10-23T01:11:31.628Z,10.65
2022-10-23T01:16:44.439Z,10.66
2022-10-23T01:21:55.719Z,10.49
2022-10-23T01:27:18.034Z,10.34
2022-10-23T01:32:38.981Z,10.27
2022-10-23T01:37:51.166Z,10.33
2022-10-23T01:42:57.279Z,10.43
2022-10-23T01:48:04.534Z,10.32
2022-10-23T01:53:11.915Z,10.35
2022-10-23T01:58:15.648Z,10.55
2022-10-23T02:03:19.469Z,10.36
2022-10-23T02:08:21.240Z,10.38
2022-10-23T02:13:33.854Z,10.29
2022-10-23T02:18:51.901Z,10.20
2022-10-23T02:24:05.211Z,10.27
2022-10-23T02:29:17.149Z,10.19
2022-10-23T02:34:21.112Z,10.43
2022-10-23T02:39:26.817Z,10.36
2022-10-23T02:44:37.827Z,10.42
2022-10-23T02:49:49.901Z,10.52
2022-10-23T02:55:22.676Z,10.50
2022-10-23T03:00:24.973Z,10.51
2022-10-23T03:05:34.250Z,10.49
2022-10-23T03:10:35.904Z,10.45
2022-10-23T03:15:37.431Z,10.55
2022-10-23T03:20:38.907Z,10.51
2022-10-23T03:25:40.485Z,10.56
2022-10-23T03:37:10.560Z,10.60
2022-10-23T03:42:12.228Z,10.63
2022-10-23T03:47:13.762Z,10.52
2022-10-23T03:52:16.576Z,10.63
2022-10-23T03:57:18.079Z,10.63
2022-10-23T04:02:19.737Z,10.71
2022-10-23T04:07:21.273Z,10.75
2022-10-23T04:12:23.350Z,10.78
2022-10-23T04:22:33.708Z,10.76
2022-10-23T04:27:35.265Z,10.68
2022-10-23T04:32:36.967Z,10.66
2022-10-23T04:37:39.575Z,10.74
2022-10-23T04:42:42.005Z,10.78
2022-10-23T04:47:43.781Z,10.84
2022-10-23T04:52:45.561Z,10.98
2022-10-23T04:58:19.757Z,10.99
2022-10-23T05:03:22.318Z,10.90
2022-10-23T05:08:24.208Z,10.85
2022-10-23T05:13:40.964Z,10.93
2022-10-23T05:18:47.091Z,10.93
2022-10-23T05:23:48.789Z,10.89
2022-10-23T05:28:50.938Z,10.90
2022-10-23T05:33:55.394Z,10.98
2022-10-23T05:38:58.197Z,11.02
2022-10-23T05:44:00.861Z,11.01
2022-10-23T05:49:27.453Z,11.10
2022-10-23T05:54:51.612Z,11.17
2022-10-23T06:00:20.945Z,11.21
2022-10-23T06:05:34.431Z,11.20
2022-10-23T06:10:56.831Z,11.11
2022-10-23T06:15:58.416Z,10.85
2022-10-23T06:21:01.635Z,10.85
2022-10-23T06:26:05.129Z,11.01
2022-10-23T06:31:20.502Z,11.04
2022-10-23T06:36:26.520Z,11.12
2022-10-23T06:41:34.213Z,11.18
2022-10-23T06:46:36.121Z,11.22
2022-10-23T06:52:18.471Z,11.19
2022-10-23T06:57:30.450Z,11.22
2022-10-23T07:02:31.952Z,11.30
2022-10-23T07:07:33.775Z,11.38
2022-10-23T07:12:35.507Z,11.50
2022-10-23T07:17:59.583Z,11.59
2022-10-23T07:23:12.844Z,11.69
2022-10-23T07:28:15.002Z,11.75
2022-10-23T07:33:16.706Z,11.86
2022-10-23T07:38:34.253Z,11.99
2022-10-23T07:43:37.080Z,12.17
2022-10-23T07:48:39.178Z,12.15
2022-10-23T07:53:42.480Z,12.29
2022-10-23T07:58:58.757Z,12.37
2022-10-23T08:04:01.149Z,12.45
2022-10-23T08:09:06.791Z,12.56
2022-10-23T08:14:11.601Z,12.63
2022-10-23T08:19:17.053Z,12.67
2022-10-23T08:24:20.638Z,12.76
2022-10-23T08:29:29.403Z,12.77
2022-10-23T08:34:31.433Z,12.85
2022-10-23T08:39:35.415Z,12.89
2022-10-23T08:45:21.435Z,12.95
2022-10-23T08:50:30.889Z,12.93
2022-10-23T08:55:40.532Z,12.98
2022-10-23T09:00:43.606Z,13.06
2022-10-23T09:06:13.808Z,13.16
2022-10-23T09:11:32.888Z,13.32
2022-10-23T09:16:40.363Z,13.40
2022-10-23T09:21:44.499Z,13.52
2022-10-23T09:26:50.979Z,13.69
2022-10-23T09:31:55.401Z,13.82
2022-10-23T09:37:02.707Z,13.96
2022-10-23T09:42:21.508Z,14.00
2022-10-23T09:47:25.446Z,13.96
2022-10-23T09:52:37.355Z,14.07
2022-10-23T09:57:44.139Z,14.23
2022-10-23T10:03:03.218Z,14.21
2022-10-23T10:08:24.754Z,14.36
2022-10-23T10:13:39.556Z,14.41
2022-10-23T10:18:56.535Z,14.49
2022-10-23T10:31:10.022Z,14.82
2022-10-23T10:36:32.395Z,14.95
2022-10-23T10:41:55.993Z,15.06
2022-10-23T10:47:37.604Z,15.16
2022-10-23T10:53:03.313Z,15.18
2022-10-23T10:58:20.327Z,15.30
2022-10-23T11:03:39.845Z,15.35
2022-10-23T11:08:56.310Z,15.43
2022-10-23T11:14:00.131Z,15.66
2022-10-23T11:19:14.084Z,15.51
2022-10-23T11:24:58.473Z,15.54
2022-10-23T11:30:21.403Z,15.53
2022-10-23T11:35:42.806Z,15.73
2022-10-23T11:40:54.081Z,15.75
2022-10-23T11:45:55.699Z,15.85
2022-10-23T11:50:59.101Z,16.06
2022-10-23T11:56:26.026Z,16.11
2022-10-23T12:01:45.513Z,16.21
2022-10-23T12:07:25.958Z,16.60
2022-10-23T12:12:40.826Z,16.62
2022-10-23T12:17:43.916Z,16.80
2022-10-23T12:22:48.990Z,17.03
2022-10-23T12:29:05.368Z,17.43
2022-10-23T12:34:43.988Z,17.53
2022-10-23T12:39:52.990Z,17.64
2022-10-23T12:45:04.743Z,17.70
2022-10-23T12:50:21.393Z,17.76
2022-10-23T12:55:25.202Z,17.77
2022-10-23T13:00:26.703Z,17.97
2022-10-23T13:05:30.130Z,17.96
2022-10-23T13:10:32.129Z,18.04
2022-10-23T13:15:40.575Z,18.08
2022-10-23T13:20:55.338Z,18.18
2022-10-23T13:26:33.783Z,18.19
2022-10-23T13:31:35.869Z,18.19
2022-10-23T13:36:39.487Z,18.08
2022-10-23T13:41:43.812Z,18.01
2022-10-23T13:46:45.662Z,17.97
2022-10-23T13:51:54.363Z,17.92
2022-10-23T13:56:57.157Z,17.92
2022-10-23T14:01:59.087Z,18.00
2022-10-23T14:07:00.686Z,17.98
2022-10-23T14:12:02.218Z,17.98
2022-10-23T14:17:04.681Z,17.96
2022-10-23T14:22:06.167Z,18.01
2022-10-23T14:27:12.205Z,18.05
2022-10-23T14:32:13.708Z,17.99
2022-10-23T14:37:15.215Z,17.97
2022-10-23T14:42:17.277Z,17.93
2022-10-23T14:47:19.271Z,17.92
2022-10-23T14:52:20.814Z,17.98
2022-10-23T14:57:22.707Z,17.91
2022-10-23T15:02:24.258Z,17.83
2022-10-23T15:07:25.806Z,17.80
2022-10-23T15:12:27.328Z,17.74
2022-10-23T15:17:28.827Z,17.67
2022-10-23T15:22:30.341Z,17.56
2022-10-23T15:27:31.856Z,17.62
2022-10-23T15:32:33.331Z,17.46
2022-10-23T15:37:35.900Z,17.44
2022-10-23T15:42:37.428Z,17.39
2022-10-23T15:47:39.059Z,17.50
2022-10-23T15:52:40.654Z,17.43
2022-10-23T15:57:42.454Z,17.31
2022-10-23T16:02:44.331Z,17.25
2022-10-23T16:07:46.066Z,17.17
2022-10-23T16:12:47.555Z,17.11
2022-10-23T16:17:49.022Z,17.12
2022-10-23T16:22:50.526Z,17.06
2022-10-23T16:27:52.089Z,17.03
2022-10-23T16:32:54.977Z,17.01
2022-10-23T16:37:56.483Z,17.11
2022-10-23T16:42:58.975Z,17.02
2022-10-23T16:48:27.644Z,17.05
2022-10-23T16:53:30.914Z,16.92
2022-10-23T16:58:33.224Z,16.81
2022-10-23T17:03:37.702Z,16.91
2022-10-23T17:08:40.347Z,16.90
2022-10-23T17:13:45.616Z,16.94
2022-10-23T17:18:47.806Z,16.96
2022-10-23T17:23:49.936Z,16.93
2022-10-23T17:28:51.888Z,16.95
2022-10-23T17:33:58.485Z,16.86
2022-10-23T17:39:00.827Z,16.79
2022-10-23T17:44:02.495Z,16.70
2022-10-23T17:49:05.184Z,16.88
2022-10-23T17:54:10.555Z,16.78
2022-10-23T17:59:14.109Z,16.72
2022-10-23T18:04:18.799Z,16.67
2022-10-23T18:09:21.705Z,16.59
2022-10-23T18:14:26.067Z,16.67
2022-10-23T18:19:30.656Z,16.68
2022-10-23T18:24:32.298Z,16.75
2022-10-23T18:29:33.821Z,16.79
2022-10-23T18:34:35.535Z,16.77
2022-10-23T18:39:37.006Z,16.78
2022-10-23T18:44:38.707Z,16.85
2022-10-23T18:49:40.204Z,16.81
2022-10-23T18:54:41.709Z,16.78
2022-10-23T18:59:43.331Z,16.71
2022-10-23T19:04:44.874Z,16.75
2022-10-23T19:09:46.778Z,16.64
2022-10-23T19:14:48.369Z,16.56
2022-10-23T19:19:53.503Z,16.57
2022-10-23T19:25:01.662Z,16.54
2022-10-23T19:30:06.503Z,16.43
2022-10-23T19:35:12.819Z,16.43
2022-10-23T19:40:15.296Z,16.38
2022-10-23T19:45:17.534Z,16.45
2022-10-23T19:50:21.100Z,16.42
2022-10-23T19:55:22.677Z,16.41
2022-10-23T20:00:24.290Z,16.40
2022-10-23T20:05:25.854Z,16.31
2022-10-23T20:10:28.133Z,16.31
2022-10-23T20:15:29.626Z,16.50
2022-10-23T20:20:31.681Z,16.41
2022-10-23T20:25:33.287Z,16.36
2022-10-23T20:30:40.364Z,16.62
2022-10-23T20:35:43.026Z,16.53
2022-10-23T20:40:44.736Z,16.09
2022-10-23T20:45:46.285Z,15.73
2022-10-23T20:50:50.983Z,15.71
2022-10-23T20:55:52.479Z,15.59
2022-10-23T21:00:53.980Z,15.49
2022-10-23T21:05:55.566Z,15.54
2022-10-23T21:10:57.178Z,15.69
2022-10-23T21:15:59.061Z,15.93
2022-10-23T21:21:02.363Z,16.09
2022-10-23T21:26:07.496Z,16.23
2022-10-23T21:31:13.014Z,15.94
2022-10-23T21:36:17.526Z,15.76
2022-10-23T21:41:31.981Z,15.77
2022-10-23T21:46:34.915Z,15.54
2022-10-23T21:51:37.510Z,15.42
2022-10-23T21:56:46.359Z,15.23
2022-10-23T22:01:48.758Z,15.18
2022-10-23T22:06:50.386Z,15.09
2022-10-23T22:11:53.337Z,15.05
2022-10-23T22:16:55.026Z,15.04
2022-10-23T22:21:56.804Z,15.04
2022-10-23T22:26:58.344Z,15.15
2022-10-23T22:31:59.871Z,15.27
2022-10-23T22:37:01.391Z,15.26
2022-10-23T22:42:02.923Z,15.31
2022-10-23T22:47:04.709Z,15.29
2022-10-23T22:52:06.206Z,15.33
2022-10-23T22:57:07.770Z,15.26
2022-10-23T23:02:10.020Z,15.32
2022-10-23T23:07:12.710Z,15.25
2022-10-23T23:12:14.866Z,15.16
2022-10-23T23:17:16.361Z,15.17
2022-10-23T23:22:17.888Z,15.04
2022-10-23T23:27:19.527Z,15.04
2022-10-23T23:32:21.021Z,15.13
2022-10-23T23:37:22.524Z,15.06
2022-10-23T23:42:24.038Z,15.07
2022-10-23T23:52:28.369Z,15.11
2022-10-23T23:57:29.844Z,15.07
